Time,TemperatureF,DewpointF,PressureIn,WindDirection,WindDirectionDegrees,WindSpeedMPH,WindSpeedGustMPH,Humidity,HourlyPrecipIn,Conditions,Clouds,dailyrainin,SoftwareType,DateUTC
2013-01-18 00:00:00,16.7,14.3,30.24,NE,49,0.0,0.0,90,0.00,,,0.00,Wunderground v.1.12,2013-01-18 07:00:00,
2013-01-18 00:05:00,16.6,14.2,30.24,NE,49,0.0,0.0,90,0.00,,,0.00,Wunderground v.1.12,2013-01-18 07:05:00,
2013-01-18 00:10:00,16.5,14.1,30.24,NE,49,0.0,0.0,90,0.00,,,0.00,Wunderground v.1.12,2013-01-18 07:10:00,
2013-01-18 00:20:00,16.3,13.9,30.24,NE,49,0.0,0.0,90,0.00,,,0.00,Wunderground v.1.12,2013-01-18 07:20:00,
2013-01-18 00:25:00,16.3,13.9,30.24,NE,49,0.0,0.0,90,0.00,,,0.00,Wunderground v.1.12,2013-01-18 07:25:00,
2013-01-18 00:30:00,16.3,13.9,30.24,NE,49,0.0,0.0,90,0.00,,,0.00,Wunderground v.1.12,2013-01-18 07:30:00,
2013-01-18 00:35:00,16.3,13.9,30.23,NE,49,0.0,0.0,90,0.00,,,0.00,Wunderground v.1.12,2013-01-18 07:35:00,
2013-01-18 00:40:00,16.2,13.8,30.23,NE,49,0.0,0.0,90,0.00,,,0.00,Wunderground v.1.12,2013-01-18 07:40:00,
2013-01-18 00:45:00,16.5,14.1,30.23,NE,49,0.0,0.0,90,0.00,,,0.00,Wunderground v.1.12,2013-01-18 07:45:00,
2013-01-18 00:50:00,16.3,13.9,30.23,NE,49,0.0,0.0,90,0.00,,,0.00,Wunderground v.1.12,2013-01-18 07:50:00,
2013-01-18 00:55:00,16.2,13.8,30.23,NE,49,0.0,0.0,90,0.00,,,0.00,Wunderground v.1.12,2013-01-18 07:55:00,
2013-01-18 01:05:00,15.9,13.2,30.24,NE,49,0.0,0.0,89,0.00,,,0.00,Wunderground v.1.12,2013-01-18 08:05:00,
2013-01-18 01:10:00,15.8,13.1,30.23,NE,49,0.0,0.0,89,0.00,,,0.00,Wunderground v.1.12,2013-01-18 08:10:00,
2013-01-18 01:15:00,15.7,13.0,30.23,NE,49,0.0,0.0,89,0.00,,,0.00,Wunderground v.1.12,2013-01-18 08:15:00,
2013-01-18 01:20:00,15.6,13.2,30.23,NE,49,0.0,0.0,90,0.00,,,0.00,Wunderground v.1.12,2013-01-18 08:20:00,
2013-01-18 01:25:00,15.8,13.6,30.23,NE,49,0.0,0.0,91,0.00,,,0.00,Wunderground v.1.12,2013-01-18 08:25:00,
2013-01-18 01:35:00,16.3,14.4,30.23,NE,49,0.0,0.0,92,0.00,,,0.00,Wunderground v.1.12,2013-01-18 08:35:00,
2013-01-18 01:40:00,16.1,14.2,30.23,NE,49,0.0,0.0,92,0.00,,,0.00,Wunderground v.1.12,2013-01-18 08:40:00,
2013-01-18 01:45:00,16.1,14.2,30.22,NE,49,0.0,0.0,92,0.00,,,0.00,Wunderground v.1.12,2013-01-18 08:45:00,
2013-01-18 01:50:00,16.4,14.5,30.23,NE,49,0.0,0.0,92,0.00,,,0.00,Wunderground v.1.12,2013-01-18 08:50:00,
2013-01-18 01:55:00,16.3,14.4,30.23,NE,49,0.0,0.0,92,0.00,,,0.00,Wunderground v.1.12,2013-01-18 08:55:00,
2013-01-18 02:00:00,16.3,14.4,30.23,NE,49,0.0,0.0,92,0.00,,,0.00,Wunderground v.1.12,2013-01-18 09:00:00,
2013-01-18 02:10:00,16.5,14.6,30.22,NE,49,0.0,0.0,92,0.00,,,0.00,Wunderground v.1.12,2013-01-18 09:10:00,
2013-01-18 02:15:00,16.3,14.4,30.22,NE,49,0.0,0.0,92,0.00,,,0.00,Wunderground v.1.12,2013-01-18 09:15:00,
2013-01-18 02:20:00,16.6,14.7,30.22,NE,49,0.0,0.0,92,0.00,,,0.00,Wunderground v.1.12,2013-01-18 09:20:00,
2013-01-18 02:25:00,16.6,14.7,30.22,NE,49,0.0,0.0,92,0.00,,,0.00,Wunderground v.1.12,2013-01-18 09:25:00,
2013-01-18 02:30:00,16.4,14.5,30.22,NE,49,0.0,0.0,92,0.00,,,0.00,Wunderground v.1.12,2013-01-18 09:30:00,
2013-01-18 02:40:00,16.7,14.5,30.22,NE,49,0.0,0.0,91,0.00,,,0.00,Wunderground v.1.12,2013-01-18 09:40:00,
2013-01-18 02:45:00,16.4,14.5,30.22,NE,49,0.0,0.0,92,0.00,,,0.00,Wunderground v.1.12,2013-01-18 09:45:00,
2013-01-18 02:50:00,16.5,14.6,30.22,NE,49,0.0,0.0,92,0.00,,,0.00,Wunderground v.1.12,2013-01-18 09:50:00,
2013-01-18 02:55:00,16.7,15.0,30.22,NE,49,0.0,0.0,93,0.00,,,0.00,Wunderground v.1.12,2013-01-18 09:55:00,
2013-01-18 03:00:00,16.9,15.5,30.22,NE,49,0.0,0.0,94,0.00,,,0.00,Wunderground v.1.12,2013-01-18 10:00:00,
2013-01-18 03:05:00,16.8,15.1,30.21,NE,49,0.0,0.0,93,0.00,,,0.00,Wunderground v.1.12,2013-01-18 10:05:00,
2013-01-18 03:10:00,16.8,15.1,30.22,NE,49,0.0,0.0,93,0.00,,,0.00,Wunderground v.1.12,2013-01-18 10:10:00,
2013-01-18 03:15:00,16.9,15.2,30.21,NE,49,0.0,0.0,93,0.00,,,0.00,Wunderground v.1.12,2013-01-18 10:15:00,
2013-01-18 03:20:00,17.0,15.3,30.21,NE,49,0.0,0.0,93,0.00,,,0.00,Wunderground v.1.12,2013-01-18 10:20:00,
2013-01-18 03:25:00,16.9,15.2,30.22,NE,49,0.0,0.0,93,0.00,,,0.00,Wunderground v.1.12,2013-01-18 10:25:00,
2013-01-18 03:30:00,17.0,15.3,30.22,NE,49,0.0,0.0,93,0.00,,,0.00,Wunderground v.1.12,2013-01-18 10:30:00,
2013-01-18 03:35:00,17.0,15.3,30.22,NE,49,0.0,0.0,93,0.00,,,0.00,Wunderground v.1.12,2013-01-18 10:35:00,
2013-01-18 03:45:00,17.4,16.0,30.21,NE,49,0.0,0.0,94,0.00,,,0.00,Wunderground v.1.12,2013-01-18 10:45:00,
2013-01-18 03:50:00,17.5,16.1,30.22,NE,49,0.0,0.0,94,0.00,,,0.00,Wunderground v.1.12,2013-01-18 10:50:00,
2013-01-18 03:55:00,17.5,16.1,30.21,NE,49,0.0,0.0,94,0.00,,,0.00,Wunderground v.1.12,2013-01-18 10:55:00,
2013-01-18 04:00:00,17.6,16.2,30.21,NE,49,0.0,0.0,94,0.00,,,0.00,Wunderground v.1.12,2013-01-18 11:00:00,
2013-01-18 04:05:00,17.5,16.1,30.21,NE,49,0.0,0.0,94,0.00,,,0.00,Wunderground v.1.12,2013-01-18 11:05:00,
2013-01-18 04:15:00,17.6,16.4,30.21,NE,49,0.0,0.0,95,0.00,,,0.00,Wunderground v.1.12,2013-01-18 11:15:00,
2013-01-18 04:20:00,17.6,16.4,30.21,NE,49,0.0,0.0,95,0.00,,,0.00,Wunderground v.1.12,2013-01-18 11:20:00,
2013-01-18 04:25:00,17.6,16.4,30.20,NE,49,0.0,0.0,95,0.00,,,0.00,Wunderground v.1.12,2013-01-18 11:25:00,
2013-01-18 04:30:00,17.9,16.7,30.20,NE,49,0.0,0.0,95,0.00,,,0.00,Wunderground v.1.12,2013-01-18 11:30:00,
2013-01-18 04:35:00,17.9,16.7,30.20,NE,49,0.0,0.0,95,0.00,,,0.00,Wunderground v.1.12,2013-01-18 11:35:00,
2013-01-18 04:40:00,17.9,16.7,30.20,NE,49,0.0,0.0,95,0.00,,,0.00,Wunderground v.1.12,2013-01-18 11:40:00,
2013-01-18 04:50:00,17.8,16.4,30.19,NE,49,0.0,0.0,94,0.00,,,0.00,Wunderground v.1.12,2013-01-18 11:50:00,
2013-01-18 04:55:00,17.9,16.5,30.19,NE,49,0.0,0.0,94,0.00,,,0.00,Wunderground v.1.12,2013-01-18 11:55:00,
2013-01-18 05:00:00,17.8,16.4,30.19,NE,49,0.0,0.0,94,0.00,,,0.00,Wunderground v.1.12,2013-01-18 12:00:00,
2013-01-18 05:05:00,18.1,16.7,30.19,NE,49,0.0,0.0,94,0.00,,,0.00,Wunderground v.1.12,2013-01-18 12:05:00,
2013-01-18 05:10:00,17.9,16.5,30.19,NE,49,0.0,0.0,94,0.00,,,0.00,Wunderground v.1.12,2013-01-18 12:10:00,
2013-01-18 05:15:00,18.1,16.7,30.19,NE,49,0.0,0.0,94,0.00,,,0.00,Wunderground v.1.12,2013-01-18 12:15:00,
2013-01-18 05:20:00,18.0,16.6,30.19,NE,49,0.0,0.0,94,0.00,,,0.00,Wunderground v.1.12,2013-01-18 12:20:00,
2013-01-18 05:25:00,18.1,16.7,30.18,NE,49,0.0,0.0,94,0.00,,,0.00,Wunderground v.1.12,2013-01-18 12:25:00,
2013-01-18 05:30:00,18.0,16.6,30.18,NE,49,0.0,0.0,94,0.00,,,0.00,Wunderground v.1.12,2013-01-18 12:30:00,
2013-01-18 05:40:00,18.0,16.6,30.18,NE,49,0.0,0.0,94,0.00,,,0.00,Wunderground v.1.12,2013-01-18 12:40:00,
2013-01-18 05:45:00,18.0,16.6,30.18,NE,49,0.0,0.0,94,0.00,,,0.00,Wunderground v.1.12,2013-01-18 12:45:00,
2013-01-18 05:50:00,18.2,16.8,30.17,NE,49,0.0,0.0,94,0.00,,,0.00,Wunderground v.1.12,2013-01-18 12:50:00,
2013-01-18 05:55:00,18.1,16.7,30.17,NE,49,0.0,0.0,94,0.00,,,0.00,Wunderground v.1.12,2013-01-18 12:55:00,
2013-01-18 06:05:00,18.0,16.3,30.17,NE,49,0.0,0.0,93,0.00,,,0.00,Wunderground v.1.12,2013-01-18 13:05:00,
2013-01-18 06:10:00,18.2,16.8,30.17,NE,49,0.0,0.0,94,0.00,,,0.00,Wunderground v.1.12,2013-01-18 13:10:00,
2013-01-18 06:15:00,18.3,16.9,30.16,NE,49,0.0,0.0,94,0.00,,,0.00,Wunderground v.1.12,2013-01-18 13:15:00,
2013-01-18 06:25:00,18.2,17.0,30.16,NE,49,0.0,0.0,95,0.00,,,0.00,Wunderground v.1.12,2013-01-18 13:25:00,
2013-01-18 06:30:00,18.5,17.1,30.16,NE,49,0.0,0.0,94,0.00,,,0.00,Wunderground v.1.12,2013-01-18 13:30:00,
2013-01-18 06:35:00,18.3,16.9,30.16,NE,49,0.0,0.0,94,0.00,,,0.00,Wunderground v.1.12,2013-01-18 13:35:00,
2013-01-18 06:40:00,18.4,17.0,30.16,NE,49,0.0,0.0,94,0.00,,,0.00,Wunderground v.1.12,2013-01-18 13:40:00,
2013-01-18 06:45:00,18.5,17.1,30.16,NE,49,0.0,0.0,94,0.00,,,0.00,Wunderground v.1.12,2013-01-18 13:45:00,
2013-01-18 06:55:00,18.3,16.9,30.16,NE,49,0.0,0.0,94,0.00,,,0.00,Wunderground v.1.12,2013-01-18 13:55:00,
2013-01-18 07:00:00,18.5,17.3,30.15,NE,49,0.0,0.0,95,0.00,,,0.00,Wunderground v.1.12,2013-01-18 14:00:00,
2013-01-18 07:05:00,18.4,17.2,30.15,NE,49,0.0,0.0,95,0.00,,,0.00,Wunderground v.1.12,2013-01-18 14:05:00,
2013-01-18 07:10:00,18.4,17.2,30.16,NE,49,0.0,0.0,95,0.00,,,0.00,Wunderground v.1.12,2013-01-18 14:10:00,
2013-01-18 07:15:00,18.5,17.3,30.16,NE,49,0.0,0.0,95,0.00,,,0.00,Wunderground v.1.12,2013-01-18 14:15:00,
2013-01-18 07:20:00,18.8,17.6,30.15,NE,49,0.0,0.0,95,0.00,,,0.00,Wunderground v.1.12,2013-01-18 14:20:00,
2013-01-18 07:30:00,18.9,17.9,30.16,NE,49,0.0,0.0,96,0.00,,,0.00,Wunderground v.1.12,2013-01-18 14:30:00,
2013-01-18 07:35:00,19.0,18.0,30.15,NE,49,0.0,0.0,96,0.00,,,0.00,Wunderground v.1.12,2013-01-18 14:35:00,
2013-01-18 07:40:00,19.0,18.0,30.16,NE,49,0.0,0.0,96,0.00,,,0.00,Wunderground v.1.12,2013-01-18 14:40:00,
2013-01-18 07:45:00,19.1,18.1,30.15,NE,49,0.0,0.0,96,0.00,,,0.00,Wunderground v.1.12,2013-01-18 14:45:00,
2013-01-18 07:50:00,19.1,18.1,30.15,NE,49,0.0,0.0,96,0.00,,,0.00,Wunderground v.1.12,2013-01-18 14:50:00,
2013-01-18 07:55:00,19.2,18.2,30.15,NE,49,0.0,0.0,96,0.00,,,0.00,Wunderground v.1.12,2013-01-18 14:55:00,
2013-01-18 08:00:00,19.2,18.2,30.15,NE,49,0.0,0.0,96,0.00,,,0.00,Wunderground v.1.12,2013-01-18 15:00:00,
2013-01-18 08:05:00,19.3,18.3,30.15,NE,49,0.0,0.0,96,0.00,,,0.00,Wunderground v.1.12,2013-01-18 15:05:00,
2013-01-18 08:10:00,19.4,18.4,30.15,NE,49,0.0,0.0,96,0.00,,,0.00,Wunderground v.1.12,2013-01-18 15:10:00,
2013-01-18 08:15:00,19.4,18.4,30.15,NE,49,0.0,0.0,96,0.00,,,0.00,Wunderground v.1.12,2013-01-18 15:15:00,
2013-01-18 08:20:00,19.5,18.5,30.15,NE,49,0.0,0.0,96,0.00,,,0.00,Wunderground v.1.12,2013-01-18 15:20:00,
2013-01-18 08:30:00,19.7,18.7,30.16,NE,49,0.0,0.0,96,0.00,,,0.00,Wunderground v.1.12,2013-01-18 15:30:00,
2013-01-18 08:35:00,19.7,19.0,30.16,NE,49,0.0,0.0,97,0.00,,,0.00,Wunderground v.1.12,2013-01-18 15:35:00,
2013-01-18 08:40:00,19.7,18.7,30.16,NE,49,0.0,0.0,96,0.00,,,0.00,Wunderground v.1.12,2013-01-18 15:40:00,
2013-01-18 08:50:00,19.5,18.5,30.16,NE,49,0.0,0.0,96,0.00,,,0.00,Wunderground v.1.12,2013-01-18 15:50:00,
2013-01-18 08:55:00,19.6,18.6,30.16,NE,49,0.0,0.0,96,0.00,,,0.00,Wunderground v.1.12,2013-01-18 15:55:00,
2013-01-18 09:00:00,19.5,18.5,30.16,NE,49,0.0,0.0,96,0.00,,,0.00,Wunderground v.1.12,2013-01-18 16:00:00,
2013-01-18 09:05:00,19.7,18.5,30.16,NE,49,0.0,0.0,95,0.00,,,0.00,Wunderground v.1.12,2013-01-18 16:05:00,
2013-01-18 09:10:00,19.8,18.8,30.16,NE,49,0.0,0.0,96,0.00,,,0.00,Wunderground v.1.12,2013-01-18 16:10:00,
2013-01-18 09:20:00,19.7,18.5,30.16,NE,49,0.0,0.0,95,0.00,,,0.00,Wunderground v.1.12,2013-01-18 16:20:00,
2013-01-18 09:25:00,20.0,19.0,30.16,NE,49,0.0,0.0,96,0.00,,,0.00,Wunderground v.1.12,2013-01-18 16:25:00,
2013-01-18 09:30:00,20.2,19.2,30.16,NE,49,0.0,0.0,96,0.00,,,0.00,Wunderground v.1.12,2013-01-18 16:30:00,
2013-01-18 09:40:00,20.4,19.4,30.16,NE,49,0.0,0.0,96,0.00,,,0.00,Wunderground v.1.12,2013-01-18 16:40:00,
2013-01-18 09:45:00,20.5,19.5,30.16,NE,49,0.0,0.0,96,0.00,,,0.00,Wunderground v.1.12,2013-01-18 16:45:00,
2013-01-18 09:50:00,20.6,19.6,30.16,NE,49,0.0,0.0,96,0.00,,,0.00,Wunderground v.1.12,2013-01-18 16:50:00,
2013-01-18 09:55:00,20.9,-99.9,30.16,NE,49,0.0,0.0,255,0.00,,,0.00,Wunderground v.1.12,2013-01-18 16:55:00,
2013-01-18 10:05:00,21.2,20.2,30.15,NE,49,0.0,0.0,96,0.00,,,0.00,Wunderground v.1.12,2013-01-18 17:05:00,
2013-01-18 10:10:00,21.4,20.4,30.16,NE,49,0.0,0.0,96,0.00,,,0.00,Wunderground v.1.12,2013-01-18 17:10:00,
2013-01-18 10:15:00,22.0,21.3,30.16,NE,49,0.0,0.0,97,0.00,,,0.00,Wunderground v.1.12,2013-01-18 17:15:00,
2013-01-18 10:20:00,22.3,22.3,30.16,East,82,0.0,0.0,100,0.00,,,0.00,Wunderground v.1.12,2013-01-18 17:20:00,
2013-01-18 10:25:00,22.5,21.8,30.16,East,84,0.0,0.0,97,0.00,,,0.00,Wunderground v.1.12,2013-01-18 17:25:00,
2013-01-18 10:30:00,22.8,22.1,30.16,East,84,0.0,0.0,97,0.00,,,0.00,Wunderground v.1.12,2013-01-18 17:30:00,
2013-01-18 10:35:00,23.2,22.5,30.16,East,84,0.0,0.0,97,0.00,,,0.00,Wunderground v.1.12,2013-01-18 17:35:00,
2013-01-18 10:45:00,23.5,22.5,30.16,East,84,0.0,0.0,96,0.00,,,0.00,Wunderground v.1.12,2013-01-18 17:45:00,
2013-01-18 10:50:00,24.1,23.1,30.16,East,83,0.0,0.0,96,0.00,,,0.00,Wunderground v.1.12,2013-01-18 17:50:00,
2013-01-18 10:55:00,24.0,23.0,30.16,East,83,0.0,0.0,96,0.00,,,0.00,Wunderground v.1.12,2013-01-18 17:55:00,
2013-01-18 11:00:00,24.4,23.7,30.16,East,83,0.0,0.0,97,0.00,,,0.00,Wunderground v.1.12,2013-01-18 18:00:00,
2013-01-18 11:05:00,24.6,23.9,30.16,East,83,0.0,0.0,97,0.00,,,0.00,Wunderground v.1.12,2013-01-18 18:05:00,
2013-01-18 11:10:00,24.9,24.2,30.16,East,83,0.0,0.0,97,0.00,,,0.00,Wunderground v.1.12,2013-01-18 18:10:00,
2013-01-18 11:20:00,25.4,24.7,30.15,East,84,0.0,0.0,97,0.00,,,0.00,Wunderground v.1.12,2013-01-18 18:20:00,
2013-01-18 11:25:00,25.6,24.9,30.15,East,84,0.0,0.0,97,0.00,,,0.00,Wunderground v.1.12,2013-01-18 18:25:00,
2013-01-18 11:30:00,26.0,25.3,30.15,East,83,0.0,0.0,97,0.00,,,0.00,Wunderground v.1.12,2013-01-18 18:30:00,
2013-01-18 11:35:00,26.0,25.0,30.15,East,84,0.0,0.0,96,0.00,,,0.00,Wunderground v.1.12,2013-01-18 18:35:00,
2013-01-18 11:40:00,26.2,25.5,30.15,East,83,0.0,0.0,97,0.00,,,0.00,Wunderground v.1.12,2013-01-18 18:40:00,
2013-01-18 11:50:00,26.3,25.6,30.15,East,83,0.0,0.0,97,0.00,,,0.00,Wunderground v.1.12,2013-01-18 18:50:00,
2013-01-18 11:55:00,26.5,25.5,30.14,East,84,0.0,0.0,96,0.00,,,0.00,Wunderground v.1.12,2013-01-18 18:55:00,
2013-01-18 12:00:00,26.8,25.8,30.14,East,83,0.0,0.0,96,0.00,,,0.00,Wunderground v.1.12,2013-01-18 19:00:00,
2013-01-18 12:05:00,26.6,25.4,30.14,SE,144,0.0,0.0,95,0.00,,,0.00,Wunderground v.1.12,2013-01-18 19:05:00,
2013-01-18 12:10:00,26.6,25.4,30.14,SE,144,0.0,0.0,95,0.00,,,0.00,Wunderground v.1.12,2013-01-18 19:10:00,
2013-01-18 12:15:00,26.8,25.6,30.14,SE,144,0.0,0.0,95,0.00,,,0.00,Wunderground v.1.12,2013-01-18 19:15:00,
2013-01-18 12:20:00,27.0,26.0,30.14,SE,144,0.0,0.0,96,0.00,,,0.00,Wunderground v.1.12,2013-01-18 19:20:00,
2013-01-18 12:30:00,27.3,26.1,30.14,SE,144,0.0,0.0,95,0.00,,,0.00,Wunderground v.1.12,2013-01-18 19:30:00,
2013-01-18 12:40:00,27.6,26.1,30.14,SE,144,0.0,0.0,94,0.00,,,0.00,Wunderground v.1.12,2013-01-18 19:40:00,
2013-01-18 12:50:00,28.0,26.5,30.14,SE,144,0.0,0.0,94,0.00,,,0.00,Wunderground v.1.12,2013-01-18 19:50:00,
2013-01-18 12:55:00,28.0,26.5,30.14,SE,144,0.0,0.0,94,0.00,,,0.00,Wunderground v.1.12,2013-01-18 19:55:00,
2013-01-18 13:05:00,28.3,26.8,30.14,SE,144,0.0,0.0,94,0.00,,,0.00,Wunderground v.1.12,2013-01-18 20:05:00,
2013-01-18 13:10:00,28.2,26.7,30.14,SE,144,0.0,0.0,94,0.00,,,0.00,Wunderground v.1.12,2013-01-18 20:10:00,
2013-01-18 13:20:00,28.7,27.2,30.13,NE,45,0.0,0.0,94,0.00,,,0.00,Wunderground v.1.12,2013-01-18 20:20:00,
2013-01-18 13:25:00,28.8,27.3,30.13,NE,45,0.0,0.0,94,0.00,,,0.00,Wunderground v.1.12,2013-01-18 20:25:00,
2013-01-18 13:30:00,29.0,27.5,30.13,NE,45,0.0,0.0,94,0.00,,,0.00,Wunderground v.1.12,2013-01-18 20:30:00,
2013-01-18 13:35:00,28.8,27.0,30.13,North,0,0.0,0.0,93,0.00,,,0.00,Wunderground v.1.12,2013-01-18 20:35:00,
2013-01-18 13:40:00,29.0,27.0,30.13,North,0,0.0,0.0,92,0.00,,,0.00,Wunderground v.1.12,2013-01-18 20:40:00,
2013-01-18 13:45:00,29.0,27.0,30.12,North,0,0.0,0.0,92,0.00,,,0.00,Wunderground v.1.12,2013-01-18 20:45:00,
2013-01-18 13:50:00,28.7,26.4,30.13,North,0,0.0,0.0,91,0.00,,,0.00,Wunderground v.1.12,2013-01-18 20:50:00,
2013-01-18 13:55:00,28.7,26.4,30.12,North,0,0.0,0.0,91,0.00,,,0.00,Wunderground v.1.12,2013-01-18 20:55:00,
2013-01-18 14:05:00,28.9,26.6,30.14,N/A,-737280,0.0,0.0,91,0.00,,,0.00,Wunderground v.1.12,2013-01-18 21:05:00,
2013-01-18 14:10:00,28.6,26.6,30.13,North,0,0.0,0.0,92,0.00,,,0.00,Wunderground v.1.12,2013-01-18 21:10:00,
2013-01-18 14:15:00,28.6,26.6,30.13,North,0,0.0,0.0,92,0.00,,,0.00,Wunderground v.1.12,2013-01-18 21:15:00,
2013-01-18 14:20:00,28.4,26.4,30.13,NE,45,0.0,0.0,92,0.00,,,0.00,Wunderground v.1.12,2013-01-18 21:20:00,
2013-01-18 14:25:00,28.3,26.0,30.13,NE,46,0.0,0.0,91,0.00,,,0.00,Wunderground v.1.12,2013-01-18 21:25:00,
2013-01-18 14:30:00,28.4,26.4,30.13,NE,46,0.0,0.0,92,0.00,,,0.00,Wunderground v.1.12,2013-01-18 21:30:00,
2013-01-18 14:35:00,28.5,26.5,30.13,NE,46,0.0,0.0,92,0.00,,,0.00,Wunderground v.1.12,2013-01-18 21:35:00,
2013-01-18 14:45:00,28.2,26.2,30.12,NE,46,0.0,0.0,92,0.00,,,0.00,Wunderground v.1.12,2013-01-18 21:45:00,
2013-01-18 14:50:00,28.3,26.3,30.12,NE,46,0.0,0.0,92,0.00,,,0.00,Wunderground v.1.12,2013-01-18 21:50:00,
2013-01-18 14:55:00,28.5,26.5,30.12,NE,46,0.0,0.0,92,0.00,,,0.00,Wunderground v.1.12,2013-01-18 21:55:00,
2013-01-18 15:00:00,28.8,26.8,30.12,NE,46,0.0,0.0,92,0.00,,,0.00,Wunderground v.1.12,2013-01-18 22:00:00,
2013-01-18 15:05:00,28.9,26.9,30.11,NE,46,0.0,0.0,92,0.00,,,0.00,Wunderground v.1.12,2013-01-18 22:05:00,
2013-01-18 15:15:00,28.9,26.9,30.12,WNW,288,0.0,0.0,92,0.00,,,0.00,Wunderground v.1.12,2013-01-18 22:15:00,
2013-01-18 15:20:00,28.6,26.3,30.12,West,271,0.0,0.0,91,0.00,,,0.00,Wunderground v.1.12,2013-01-18 22:20:00,
2013-01-18 15:25:00,28.8,26.5,30.12,West,266,0.0,0.0,91,0.00,,,0.00,Wunderground v.1.12,2013-01-18 22:25:00,
2013-01-18 15:30:00,28.6,26.3,30.12,WSW,250,0.0,0.0,91,0.00,,,0.00,Wunderground v.1.12,2013-01-18 22:30:00,
2013-01-18 15:35:00,28.5,26.2,30.12,WSW,254,0.0,0.0,91,0.00,,,0.00,Wunderground v.1.12,2013-01-18 22:35:00,
2013-01-18 15:40:00,28.7,26.4,30.11,West,260,0.0,0.0,91,0.00,,,0.00,Wunderground v.1.12,2013-01-18 22:40:00,
2013-01-18 15:45:00,28.6,26.3,30.12,WSW,253,0.0,0.0,91,0.00,,,0.00,Wunderground v.1.12,2013-01-18 22:45:00,
2013-01-18 15:50:00,28.5,26.2,30.12,West,281,0.0,0.0,91,0.00,,,0.00,Wunderground v.1.12,2013-01-18 22:50:00,
2013-01-18 15:55:00,28.1,25.8,30.12,North,0,0.0,0.0,91,0.00,,,0.00,Wunderground v.1.12,2013-01-18 22:55:00,
2013-01-18 16:00:00,28.4,26.1,30.12,North,0,0.0,0.0,91,0.00,,,0.00,Wunderground v.1.12,2013-01-18 23:00:00,
2013-01-18 16:05:00,28.3,26.0,30.12,North,0,0.0,0.0,91,0.00,,,0.00,Wunderground v.1.12,2013-01-18 23:05:00,
2013-01-18 16:10:00,27.7,25.4,30.13,North,0,0.0,0.0,91,0.00,,,0.00,Wunderground v.1.12,2013-01-18 23:10:00,
2013-01-18 16:20:00,27.7,25.4,30.13,North,0,0.0,0.0,91,0.00,,,0.00,Wunderground v.1.12,2013-01-18 23:20:00,
2013-01-18 16:25:00,27.6,25.3,30.13,North,0,0.0,0.0,91,0.00,,,0.00,Wunderground v.1.12,2013-01-18 23:25:00,
2013-01-18 16:30:00,27.9,25.6,30.13,NE,44,0.0,0.0,91,0.00,,,0.00,Wunderground v.1.12,2013-01-18 23:30:00,
2013-01-18 16:35:00,27.5,25.2,30.13,NE,46,0.0,0.0,91,0.00,,,0.00,Wunderground v.1.12,2013-01-18 23:35:00,
2013-01-18 16:40:00,27.8,25.8,30.13,NE,46,0.0,0.0,92,0.00,,,0.00,Wunderground v.1.12,2013-01-18 23:40:00,
2013-01-18 16:45:00,27.5,25.5,30.13,NE,46,0.0,0.0,92,0.00,,,0.00,Wunderground v.1.12,2013-01-18 23:45:00,
2013-01-18 16:50:00,27.5,25.5,30.13,NE,47,0.0,0.0,92,0.00,,,0.00,Wunderground v.1.12,2013-01-18 23:50:00,
2013-01-18 16:55:00,27.6,25.6,30.13,NE,46,0.0,0.0,92,0.00,,,0.00,Wunderground v.1.12,2013-01-18 23:55:00,
2013-01-18 17:00:00,27.5,25.5,30.13,NE,46,0.0,0.0,92,0.00,,,0.00,Wunderground v.1.12,2013-01-19 00:00:00,
2013-01-18 17:05:00,27.2,24.9,30.13,NE,46,0.0,0.0,91,0.00,,,0.00,Wunderground v.1.12,2013-01-19 00:05:00,
2013-01-18 17:10:00,27.4,25.4,30.13,NE,46,0.0,0.0,92,0.00,,,0.00,Wunderground v.1.12,2013-01-19 00:10:00,
2013-01-18 17:15:00,27.2,24.9,30.13,NE,46,0.0,0.0,91,0.00,,,0.00,Wunderground v.1.12,2013-01-19 00:15:00,
2013-01-18 17:20:00,27.0,24.5,30.13,NE,52,0.0,0.0,90,0.00,,,0.00,Wunderground v.1.12,2013-01-19 00:20:00,
2013-01-18 17:25:00,26.7,24.2,30.13,ENE,60,0.0,0.0,90,0.00,,,0.00,Wunderground v.1.12,2013-01-19 00:25:00,
2013-01-18 17:30:00,26.3,23.8,30.14,NE,53,0.0,0.0,90,0.00,,,0.00,Wunderground v.1.12,2013-01-19 00:30:00,
2013-01-18 17:35:00,26.3,23.8,30.14,NE,53,0.0,0.0,90,0.00,,,0.00,Wunderground v.1.12,2013-01-19 00:35:00,
2013-01-18 17:45:00,26.1,23.6,30.13,ENE,59,0.0,0.0,90,0.00,,,0.00,Wunderground v.1.12,2013-01-19 00:45:00,
2013-01-18 17:50:00,26.0,23.5,30.13,NE,44,0.0,0.0,90,0.00,,,0.00,Wunderground v.1.12,2013-01-19 00:50:00,
2013-01-18 17:55:00,26.0,23.5,30.13,NE,55,0.0,0.0,90,0.00,,,0.00,Wunderground v.1.12,2013-01-19 00:55:00,
2013-01-18 18:00:00,25.8,23.3,30.14,NE,54,0.0,0.0,90,0.00,,,0.00,Wunderground v.1.12,2013-01-19 01:00:00,
2013-01-18 18:10:00,25.0,22.5,30.14,NE,53,0.0,0.0,90,0.00,,,0.00,Wunderground v.1.12,2013-01-19 01:10:00,
2013-01-18 18:15:00,25.0,22.5,30.14,NE,48,0.0,0.0,90,0.00,,,0.00,Wunderground v.1.12,2013-01-19 01:15:00,
2013-01-18 18:20:00,25.0,22.5,30.14,NE,48,0.0,0.0,90,0.00,,,0.00,Wunderground v.1.12,2013-01-19 01:20:00,
2013-01-18 18:30:00,24.7,21.9,30.15,NE,47,0.0,0.0,89,0.00,,,0.00,Wunderground v.1.12,2013-01-19 01:30:00,
2013-01-18 18:35:00,24.4,21.6,30.15,NE,47,0.0,0.0,89,0.00,,,0.00,Wunderground v.1.12,2013-01-19 01:35:00,
2013-01-18 18:40:00,24.3,21.8,30.16,NE,47,0.0,0.0,90,0.00,,,0.00,Wunderground v.1.12,2013-01-19 01:40:00,
2013-01-18 18:45:00,24.4,21.9,30.16,NE,45,0.0,0.0,90,0.00,,,0.00,Wunderground v.1.12,2013-01-19 01:45:00,
2013-01-18 18:55:00,24.4,21.9,30.16,NE,37,0.0,0.0,90,0.00,,,0.00,Wunderground v.1.12,2013-01-19 01:55:00,
2013-01-18 19:00:00,24.0,21.5,30.16,NE,50,0.0,0.0,90,0.00,,,0.00,Wunderground v.1.12,2013-01-19 02:00:00,
2013-01-18 19:10:00,23.9,21.4,30.16,ENE,57,0.0,0.0,90,0.00,,,0.00,Wunderground v.1.12,2013-01-19 02:10:00,
2013-01-18 19:15:00,23.7,21.2,30.16,NE,50,0.0,0.0,90,0.00,,,0.00,Wunderground v.1.12,2013-01-19 02:15:00,
2013-01-18 19:20:00,23.6,21.1,30.17,NE,49,0.0,0.0,90,0.00,,,0.00,Wunderground v.1.12,2013-01-19 02:20:00,
2013-01-18 19:25:00,23.4,20.9,30.17,NE,49,0.0,0.0,90,0.00,,,0.00,Wunderground v.1.12,2013-01-19 02:25:00,
2013-01-18 19:35:00,23.3,20.8,30.18,NE,49,0.0,0.0,90,0.00,,,0.00,Wunderground v.1.12,2013-01-19 02:35:00,
2013-01-18 19:40:00,23.1,20.6,30.18,NE,52,0.0,0.0,90,0.00,,,0.00,Wunderground v.1.12,2013-01-19 02:40:00,
2013-01-18 19:45:00,23.1,20.3,30.18,ENE,58,0.0,0.0,89,0.00,,,0.00,Wunderground v.1.12,2013-01-19 02:45:00,
2013-01-18 19:50:00,22.8,20.0,30.18,NE,52,0.0,0.0,89,0.00,,,0.00,Wunderground v.1.12,2013-01-19 02:50:00,
2013-01-18 19:55:00,22.5,20.0,30.18,NE,47,0.0,0.0,90,0.00,,,0.00,Wunderground v.1.12,2013-01-19 02:55:00,
2013-01-18 20:00:00,22.6,20.1,30.18,NE,55,0.0,0.0,90,0.00,,,0.00,Wunderground v.1.12,2013-01-19 03:00:00,
2013-01-18 20:10:00,22.5,20.0,30.18,NE,45,0.0,0.0,90,0.00,,,0.00,Wunderground v.1.12,2013-01-19 03:10:00,
2013-01-18 20:15:00,22.4,19.9,30.18,NE,47,0.0,0.0,90,0.00,,,0.00,Wunderground v.1.12,2013-01-19 03:15:00,
2013-01-18 20:20:00,22.3,19.8,30.18,NE,49,0.0,0.0,90,0.00,,,0.00,Wunderground v.1.12,2013-01-19 03:20:00,
2013-01-18 20:25:00,22.3,19.8,30.19,NE,47,0.0,0.0,90,0.00,,,0.00,Wunderground v.1.12,2013-01-19 03:25:00,
2013-01-18 20:30:00,22.4,19.6,30.19,ENE,59,0.0,0.0,89,0.00,,,0.00,Wunderground v.1.12,2013-01-19 03:30:00,
2013-01-18 20:40:00,22.0,19.5,30.19,NE,54,0.0,0.0,90,0.00,,,0.00,Wunderground v.1.12,2013-01-19 03:40:00,
2013-01-18 20:45:00,22.1,19.4,30.19,NE,44,0.0,0.0,89,0.00,,,0.00,Wunderground v.1.12,2013-01-19 03:45:00,
2013-01-18 20:50:00,22.0,19.3,30.19,NE,50,0.0,0.0,89,0.00,,,0.00,Wunderground v.1.12,2013-01-19 03:50:00,
2013-01-18 20:55:00,21.9,19.4,30.19,NE,53,0.0,0.0,90,0.00,,,0.00,Wunderground v.1.12,2013-01-19 03:55:00,
2013-01-18 21:00:00,21.9,19.4,30.19,NE,46,0.0,0.0,90,0.00,,,0.00,Wunderground v.1.12,2013-01-19 04:00:00,
2013-01-18 21:05:00,21.9,19.2,30.19,NE,49,0.0,0.0,89,0.00,,,0.00,Wunderground v.1.12,2013-01-19 04:05:00,
2013-01-18 21:15:00,21.8,19.1,30.19,NE,36,0.0,0.0,89,0.00,,,0.00,Wunderground v.1.12,2013-01-19 04:15:00,
2013-01-18 21:20:00,21.9,19.2,30.19,NE,39,0.0,0.0,89,0.00,,,0.00,Wunderground v.1.12,2013-01-19 04:20:00,
2013-01-18 21:30:00,21.8,19.3,30.20,ENE,59,0.0,0.0,90,0.00,,,0.00,Wunderground v.1.12,2013-01-19 04:30:00,
2013-01-18 21:35:00,21.7,19.0,30.20,NE,52,0.0,0.0,89,0.00,,,0.00,Wunderground v.1.12,2013-01-19 04:35:00,
2013-01-18 21:45:00,21.4,18.7,30.19,NE,51,0.0,0.0,89,0.00,,,0.00,Wunderground v.1.12,2013-01-19 04:45:00,
2013-01-18 21:50:00,21.3,18.6,30.20,NE,51,0.0,0.0,89,0.00,,,0.00,Wunderground v.1.12,2013-01-19 04:50:00,
2013-01-18 21:55:00,21.0,18.0,30.20,NE,49,0.0,0.0,88,0.00,,,0.00,Wunderground v.1.12,2013-01-19 04:55:00,
2013-01-18 22:05:00,21.0,18.5,30.20,NE,53,0.0,0.0,90,0.00,,,0.00,Wunderground v.1.12,2013-01-19 05:05:00,
2013-01-18 22:10:00,21.1,18.6,30.20,NE,42,0.0,0.0,90,0.00,,,0.00,Wunderground v.1.12,2013-01-19 05:10:00,
2013-01-18 22:15:00,21.0,18.5,30.20,NE,42,0.0,0.0,90,0.00,,,0.00,Wunderground v.1.12,2013-01-19 05:15:00,
2013-01-18 22:20:00,21.0,18.5,30.20,NE,48,0.0,0.0,90,0.00,,,0.00,Wunderground v.1.12,2013-01-19 05:20:00,
2013-01-18 22:25:00,21.1,18.6,30.20,NE,48,0.0,0.0,90,0.00,,,0.00,Wunderground v.1.12,2013-01-19 05:25:00,
2013-01-18 22:30:00,21.2,18.7,30.20,NE,41,0.0,0.0,90,0.00,,,0.00,Wunderground v.1.12,2013-01-19 05:30:00,
2013-01-18 22:40:00,20.8,18.3,30.21,NE,43,0.0,0.0,90,0.00,,,0.00,Wunderground v.1.12,2013-01-19 05:40:00,
2013-01-18 22:45:00,21.0,18.5,30.21,NE,42,0.0,0.0,90,0.00,,,0.00,Wunderground v.1.12,2013-01-19 05:45:00,
2013-01-18 22:55:00,20.8,18.1,30.21,NE,43,0.0,0.0,89,0.00,,,0.00,Wunderground v.1.12,2013-01-19 05:55:00,
2013-01-18 23:00:00,20.7,18.2,30.22,NE,38,0.0,0.0,90,0.00,,,0.00,Wunderground v.1.12,2013-01-19 06:00:00,
2013-01-18 23:05:00,20.7,18.0,30.22,NE,46,0.0,0.0,89,0.00,,,0.00,Wunderground v.1.12,2013-01-19 06:05:00,
2013-01-18 23:10:00,20.6,18.1,30.22,NE,53,0.0,0.0,90,0.00,,,0.00,Wunderground v.1.12,2013-01-19 06:10:00,
2013-01-18 23:15:00,20.5,17.8,30.22,NE,53,0.0,0.0,89,0.00,,,0.00,Wunderground v.1.12,2013-01-19 06:15:00,
2013-01-18 23:25:00,20.4,17.7,30.22,NE,53,0.0,0.0,89,0.00,,,0.00,Wunderground v.1.12,2013-01-19 06:25:00,
2013-01-18 23:30:00,20.0,17.3,30.22,NE,53,0.0,0.0,89,0.00,,,0.00,Wunderground v.1.12,2013-01-19 06:30:00,
2013-01-18 23:40:00,19.7,16.7,30.22,NE,52,0.0,0.0,88,0.00,,,0.00,Wunderground v.1.12,2013-01-19 06:40:00,
2013-01-18 23:45:00,19.5,16.8,30.22,NE,49,0.0,0.0,89,0.00,,,0.00,Wunderground v.1.12,2013-01-19 06:45:00,
2013-01-18 23:50:00,19.6,16.9,30.22,NE,53,0.0,0.0,89,0.00,,,0.00,Wunderground v.1.12,2013-01-19 06:50:00,
2013-01-18 23:55:00,19.5,17.0,30.23,NE,52,0.0,0.0,90,0.00,,,0.00,Wunderground v.1.12,2013-01-19 06:55:00,